Time;durP1;ratioP1;P1;durP2;ratioP2;P2;SDS_P1;SDS_P2;PMS_P1;PMS_P2;Temp;Humidity;BMP_temperature;BMP_pressure;BME280_temperature;BME280_humidity;BME280_pressure;Samples;Min_cycle;Max_cycle;Signal;HPM_P1;HPM_P2
2022/11/23 00:01:18;;;;;;;;;;;;;;;;;;4991938;28;1237;-48
2022/11/23 00:03:46;;;;;;;;;;;;;;;;;;4991657;28;1132;-47
2022/11/23 00:06:13;;;;;;;;;;;;;;;;;;4991790;28;1084;-47
2022/11/23 00:08:43;;;;;;;;;;;;;;;;;;4991979;28;1007;-47
2022/11/23 00:11:11;;;;;;;;;;;;;;;;;;4991751;28;1250;-46
2022/11/23 00:13:39;;;;;;;;;;;;;;;;;;4991703;28;966;-49
2022/11/23 00:16:07;;;;;;;;;;;;;;;;;;4991633;28;1917;-46
2022/11/23 00:18:34;;;;;;;;;;;;;;;;;;4982015;28;1352;-46
2022/11/23 00:21:05;;;;;;;;;;;;;;;;;;4972083;28;1107;-47
2022/11/23 00:23:32;;;;;;;;;;;;;;;;;;4972079;28;1272;-46
2022/11/23 00:25:59;;;;;;;;;;;;;;;;;;4972323;28;1165;-47
2022/11/23 00:28:26;;;;;;;;;;;;;;;;;;4972210;28;1016;-46
2022/11/23 00:30:54;;;;;;;;;;;;;;;;;;4970879;28;1208;-45
2022/11/23 00:33:21;;;;;;;;;;;;;;;;;;4976005;28;1178;-46
2022/11/23 00:35:58;;;;;;;;;;;;;;;;;;4974414;28;1987;-46
2022/11/23 00:38:25;;;;;;;;;;;;;;;;;;4975726;28;1010;-46
2022/11/23 00:40:59;;;;;;;;;;;;;;;;;;4975748;28;1109;-46
2022/11/23 00:43:27;;;;;;;;;;;;;;;;;;4975662;28;986;-46
2022/11/23 00:46:12;;;;;;;;;;;;;;;;;;4975585;28;905;-46
2022/11/23 00:48:40;;;;;;;;;;;;;;;;;;4975412;28;1304;-46
2022/11/23 00:51:09;;;;;;;;;;;;;;;;;;4983076;28;1249;-45
2022/11/23 00:53:37;;;;;;;;;;;;;;;;;;4993217;28;1252;-46
2022/11/23 00:56:04;;;;;;;;;;;;;;;;;;4994863;28;1981;-46
2022/11/23 00:58:32;;;;;;;;;;;;;;;;;;4994883;28;1267;-47
2022/11/23 01:01:04;;;;;;;;;;;;;;;;;;5009820;28;1375;-48
2022/11/23 01:03:34;;;;;;;;;;;;;;;;;;4993414;28;1227;-46
2022/11/23 01:06:02;;;;;;;;;;;;;;;;;;4994794;28;953;-47
2022/11/23 01:08:29;;;;;;;;;;;;;;;;;;4993192;28;1603;-45
2022/11/23 01:11:01;;;;;;;;;;;;;;;;;;4993334;28;1377;-46
2022/11/23 01:13:33;;;;;;;;;;;;;;;;;;4994348;28;1166;-48
2022/11/23 01:16:00;;;;;;;;;;;;;;;;;;4994311;28;1926;-47
2022/11/23 01:18:28;;;;;;;;;;;;;;;;;;4985428;28;1185;-46
2022/11/23 01:20:55;;;;;;;;;;;;;;;;;;4975053;28;1011;-47
2022/11/23 01:23:23;;;;;;;;;;;;;;;;;;4989723;28;1669;-46
2022/11/23 01:25:53;;;;;;;;;;;;;;;;;;4974862;28;1141;-47
2022/11/23 01:28:22;;;;;;;;;;;;;;;;;;4974963;28;1428;-46
2022/11/23 01:30:50;;;;;;;;;;;;;;;;;;4974674;28;1148;-46
2022/11/23 01:33:17;;;;;;;;;;;;;;;;;;4975150;28;1175;-47
2022/11/23 01:35:46;;;;;;;;;;;;;;;;;;4973315;28;1160;-44
2022/11/23 01:38:13;;;;;;;;;;;;;;;;;;4973404;28;1965;-46
2022/11/23 01:40:44;;;;;;;;;;;;;;;;;;4989379;28;1250;-48
2022/11/23 01:43:14;;;;;;;;;;;;;;;;;;4972241;28;1264;-47
2022/11/23 01:45:54;;;;;;;;;;;;;;;;;;4989454;28;1248;-46
2022/11/23 01:48:31;;;;;;;;;;;;;;;;;;4974600;28;1161;-48
2022/11/23 01:50:59;;;;;;;;;;;;;;;;;;4973042;28;1754;-47
2022/11/23 01:53:27;;;;;;;;;;;;;;;;;;4974471;28;1007;-47
2022/11/23 01:55:57;;;;;;;;;;;;;;;;;;4989225;28;1686;-48
2022/11/23 01:58:24;;;;;;;;;;;;;;;;;;4973048;28;1227;-46
2022/11/23 02:00:51;;;;;;;;;;;;;;;;;;4974344;28;983;-45
2022/11/23 02:03:18;;;;;;;;;;;;;;;;;;4973082;28;1463;-46
2022/11/23 02:05:48;;;;;;;;;;;;;;;;;;4973078;28;1006;-48
2022/11/23 02:08:16;;;;;;;;;;;;;;;;;;4974247;28;1161;-46
2022/11/23 02:10:44;;;;;;;;;;;;;;;;;;4989086;28;1383;-49
2022/11/23 02:13:12;;;;;;;;;;;;;;;;;;4974041;28;929;-45
2022/11/23 02:15:40;;;;;;;;;;;;;;;;;;4974036;28;1158;-49
2022/11/23 02:18:13;;;;;;;;;;;;;;;;;;4979805;28;1982;-46
2022/11/23 02:20:40;;;;;;;;;;;;;;;;;;5008411;28;1333;-47
2022/11/23 02:23:13;;;;;;;;;;;;;;;;;;4991803;28;1435;-46
2022/11/23 02:25:43;;;;;;;;;;;;;;;;;;4993279;28;1189;-48
2022/11/23 02:28:12;;;;;;;;;;;;;;;;;;4976556;28;1089;-45
2022/11/23 02:30:39;;;;;;;;;;;;;;;;;;4973796;28;1190;-46
2022/11/23 02:33:09;;;;;;;;;;;;;;;;;;4972292;28;915;-48
2022/11/23 02:35:45;;;;;;;;;;;;;;;;;;4973519;28;932;-45
2022/11/23 02:38:12;;;;;;;;;;;;;;;;;;4973664;28;1912;-46
2022/11/23 02:40:41;;;;;;;;;;;;;;;;;;4973525;28;1443;-46
2022/11/23 02:43:08;;;;;;;;;;;;;;;;;;4971947;28;1242;-45
2022/11/23 02:45:38;;;;;;;;;;;;;;;;;;4988324;28;1071;-46
2022/11/23 02:48:05;;;;;;;;;;;;;;;;;;4973206;28;1150;-48
2022/11/23 02:50:32;;;;;;;;;;;;;;;;;;4972040;28;1141;-46
2022/11/23 02:53:00;;;;;;;;;;;;;;;;;;4973368;28;1140;-47
2022/11/23 02:55:30;;;;;;;;;;;;;;;;;;4987883;28;1251;-46
2022/11/23 02:57:59;;;;;;;;;;;;;;;;;;4971926;28;1908;-46
2022/11/23 03:00:27;;;;;;;;;;;;;;;;;;4973089;28;1602;-47
2022/11/23 03:02:54;;;;;;;;;;;;;;;;;;4973553;28;1257;-47
2022/11/23 03:05:21;;;;;;;;;;;;;;;;;;4988043;28;1184;-48
2022/11/23 03:07:50;;;;;;;;;;;;;;;;;;4973297;28;1016;-47
2022/11/23 03:10:18;;;;;;;;;;;;;;;;;;4986659;28;1659;-46
2022/11/23 03:12:48;;;;;;;;;;;;;;;;;;5007541;28;1351;-47
2022/11/23 03:15:16;;;;;;;;;;;;;;;;;;4991124;28;2380;-46
2022/11/23 03:17:43;;;;;;;;;;;;;;;;;;4992161;28;1909;-47
2022/11/23 03:20:12;;;;;;;;;;;;;;;;;;4991009;28;1311;-47
2022/11/23 03:22:43;;;;;;;;;;;;;;;;;;4990990;28;1249;-46
2022/11/23 03:25:13;;;;;;;;;;;;;;;;;;5007036;28;2369;-46
2022/11/23 03:27:43;;;;;;;;;;;;;;;;;;4990838;28;1522;-47
2022/11/23 03:30:11;;;;;;;;;;;;;;;;;;4991015;28;1348;-46
2022/11/23 03:32:38;;;;;;;;;;;;;;;;;;4992055;28;1001;-46
2022/11/23 03:35:06;;;;;;;;;;;;;;;;;;4990944;28;1695;-47
2022/11/23 03:37:41;;;;;;;;;;;;;;;;;;4990626;28;2006;-46
2022/11/23 03:40:08;;;;;;;;;;;;;;;;;;4990699;28;2128;-45
2022/11/23 03:42:54;;;;;;;;;;;;;;;;;;4992106;28;1393;-45
2022/11/23 03:45:21;;;;;;;;;;;;;;;;;;5006964;28;1223;-45
2022/11/23 03:47:48;;;;;;;;;;;;;;;;;;4990565;28;1410;-45
2022/11/23 03:50:17;;;;;;;;;;;;;;;;;;5006748;28;1621;-45
2022/11/23 03:52:44;;;;;;;;;;;;;;;;;;4990630;28;1333;-45
2022/11/23 03:55:13;;;;;;;;;;;;;;;;;;4990416;28;1525;-48
2022/11/23 03:57:41;;;;;;;;;;;;;;;;;;5006894;28;1977;-46
2022/11/23 04:00:09;;;;;;;;;;;;;;;;;;4990674;28;1263;-47
2022/11/23 04:02:40;;;;;;;;;;;;;;;;;;4992136;28;996;-48
2022/11/23 04:05:26;;;;;;;;;;;;;;;;;;4990593;28;1481;-47
2022/11/23 04:08:12;;;;;;;;;;;;;;;;;;4994717;28;970;-48
2022/11/23 04:10:41;;;;;;;;;;;;;;;;;;5010446;28;2217;-46
2022/11/23 04:13:14;;;;;;;;;;;;;;;;;;4994529;28;1208;-45
2022/11/23 04:15:41;;;;;;;;;;;;;;;;;;5010722;28;2590;-45
2022/11/23 04:18:08;;;;;;;;;;;;;;;;;;4987900;28;1899;-45
2022/11/23 04:20:37;;;;;;;;;;;;;;;;;;4974844;28;1393;-46
2022/11/23 04:23:05;;;;;;;;;;;;;;;;;;4976061;28;1451;-46
2022/11/23 04:25:37;;;;;;;;;;;;;;;;;;4978154;28;2036;-46
2022/11/23 04:28:05;;;;;;;;;;;;;;;;;;4995517;28;1273;-45
2022/11/23 04:30:32;;;;;;;;;;;;;;;;;;4995414;28;1168;-48
2022/11/23 04:32:59;;;;;;;;;;;;;;;;;;4993945;28;1263;-46
2022/11/23 04:35:26;;;;;;;;;;;;;;;;;;4995480;28;1276;-48
2022/11/23 04:37:54;;;;;;;;;;;;;;;;;;4993601;28;1918;-45
2022/11/23 04:40:24;;;;;;;;;;;;;;;;;;4978381;28;1331;-46
2022/11/23 04:42:55;;;;;;;;;;;;;;;;;;4993865;28;1445;-45
2022/11/23 04:45:28;;;;;;;;;;;;;;;;;;4994162;28;1593;-45
2022/11/23 04:48:02;;;;;;;;;;;;;;;;;;4993569;28;1372;-45
2022/11/23 04:50:32;;;;;;;;;;;;;;;;;;4993879;28;1409;-47
2022/11/23 04:53:02;;;;;;;;;;;;;;;;;;4993964;28;1442;-45
2022/11/23 04:55:36;;;;;;;;;;;;;;;;;;4993807;28;1481;-45
2022/11/23 04:58:03;;;;;;;;;;;;;;;;;;4993597;28;1971;-46
2022/11/23 05:00:32;;;;;;;;;;;;;;;;;;4993354;28;1410;-46
2022/11/23 05:03:02;;;;;;;;;;;;;;;;;;4993540;28;1239;-44
2022/11/23 05:05:31;;;;;;;;;;;;;;;;;;4994827;28;1017;-46
2022/11/23 05:08:00;;;;;;;;;;;;;;;;;;4985698;28;1472;-46
2022/11/23 05:10:50;;;;;;;;;;;;;;;;;;4975325;28;1539;-48
2022/11/23 05:13:18;;;;;;;;;;;;;;;;;;4989900;28;1310;-46
2022/11/23 05:15:46;;;;;;;;;;;;;;;;;;4973841;28;1399;-46
2022/11/23 05:18:19;;;;;;;;;;;;;;;;;;4989715;28;1979;-46
2022/11/23 05:20:48;;;;;;;;;;;;;;;;;;4973675;28;1387;-46
2022/11/23 05:23:15;;;;;;;;;;;;;;;;;;4973500;28;1381;-45
2022/11/23 05:25:44;;;;;;;;;;;;;;;;;;4989534;28;1491;-49
2022/11/23 05:28:16;;;;;;;;;;;;;;;;;;4989790;28;1268;-50
2022/11/23 05:31:03;;;;;;;;;;;;;;;;;;4975953;28;62519;-48
2022/11/23 05:33:31;;;;;;;;;;;;;;;;;;4974964;28;1042;-51
2022/11/23 05:35:59;;;;;;;;;;;;;;;;;;4989615;28;1692;-46
2022/11/23 05:38:34;;;;;;;;;;;;;;;;;;4989583;28;1945;-47
2022/11/23 05:41:06;;;;;;;;;;;;;;;;;;4989580;28;1269;-46
2022/11/23 05:43:35;;;;;;;;;;;;;;;;;;4989581;28;1497;-45
2022/11/23 05:46:04;;;;;;;;;;;;;;;;;;4974841;28;1073;-44
2022/11/23 05:48:33;;;;;;;;;;;;;;;;;;4989610;28;1451;-46
2022/11/23 05:51:07;;;;;;;;;;;;;;;;;;4989432;28;1724;-47
2022/11/23 05:53:38;;;;;;;;;;;;;;;;;;4989188;28;1064;-47
2022/11/23 05:56:16;;;;;;;;;;;;;;;;;;4989322;28;1414;-45
2022/11/23 05:59:04;;;;;;;;;;;;;;;;;;4989433;28;1975;-47
2022/11/23 06:01:34;;;;;;;;;;;;;;;;;;4989126;28;1406;-46
2022/11/23 06:04:05;;;;;;;;;;;;;;;;;;5018603;28;1309;-44
2022/11/23 06:06:38;;;;;;;;;;;;;;;;;;5011748;28;1905;-45
2022/11/23 06:09:06;;;;;;;;;;;;;;;;;;5028544;28;1202;-48
2022/11/23 06:11:35;;;;;;;;;;;;;;;;;;5028238;28;1305;-46
2022/11/23 06:14:13;;;;;;;;;;;;;;;;;;5028250;28;1563;-44
2022/11/23 06:16:43;;;;;;;;;;;;;;;;;;5028061;28;1274;-46
2022/11/23 06:19:36;;;;;;;;;;;;;;;;;;4994673;28;1571;-46
2022/11/23 06:22:04;;;;;;;;;;;;;;;;;;5008321;28;1391;-46
2022/11/23 06:24:38;;;;;;;;;;;;;;;;;;5008278;28;1712;-46
2022/11/23 06:27:24;;;;;;;;;;;;;;;;;;4993348;28;1078;-46
2022/11/23 06:29:51;;;;;;;;;;;;;;;;;;5007516;28;1213;-47
2022/11/23 06:32:21;;;;;;;;;;;;;;;;;;5008162;28;1453;-45
2022/11/23 06:34:48;;;;;;;;;;;;;;;;;;5008118;28;1587;-47
2022/11/23 06:37:15;;;;;;;;;;;;;;;;;;4992983;28;1924;-48
2022/11/23 06:39:48;;;;;;;;;;;;;;;;;;5006849;28;1567;-45
2022/11/23 06:42:15;;;;;;;;;;;;;;;;;;5005272;28;2126;-45
2022/11/23 06:45:02;;;;;;;;;;;;;;;;;;4990831;28;1058;-45
2022/11/23 06:47:30;;;;;;;;;;;;;;;;;;5005865;28;1452;-46
2022/11/23 06:49:57;;;;;;;;;;;;;;;;;;4990881;28;977;-45
2022/11/23 06:52:27;;;;;;;;;;;;;;;;;;5005946;28;1429;-45
2022/11/23 06:54:54;;;;;;;;;;;;;;;;;;5006596;28;2143;-43
2022/11/23 06:57:23;;;;;;;;;;;;;;;;;;4992536;28;1914;-47
2022/11/23 06:59:52;;;;;;;;;;;;;;;;;;5007654;28;1616;-45
2022/11/23 07:02:25;;;;;;;;;;;;;;;;;;5007523;28;1449;-46
2022/11/23 07:04:55;;;;;;;;;;;;;;;;;;4992562;28;1592;-47
2022/11/23 07:07:23;;;;;;;;;;;;;;;;;;5007727;28;1238;-48
2022/11/23 07:09:59;;;;;;;;;;;;;;;;;;5007233;28;1397;-45
2022/11/23 07:12:39;;;;;;;;;;;;;;;;;;5007608;28;1213;-47
2022/11/23 07:15:06;;;;;;;;;;;;;;;;;;4992454;28;1359;-46
2022/11/23 07:17:39;;;;;;;;;;;;;;;;;;4994491;28;1914;-46
2022/11/23 07:20:09;;;;;;;;;;;;;;;;;;5027400;28;1280;-50
2022/11/23 07:22:37;;;;;;;;;;;;;;;;;;5026755;28;2079;-46
2022/11/23 07:25:04;;;;;;;;;;;;;;;;;;5026706;28;1229;-45
2022/11/23 07:27:32;;;;;;;;;;;;;;;;;;5011998;28;1731;-48
2022/11/23 07:30:00;;;;;;;;;;;;;;;;;;5026938;28;1391;-45
2022/11/23 07:32:28;;;;;;;;;;;;;;;;;;5010568;28;1253;-45
2022/11/23 07:34:55;;;;;;;;;;;;;;;;;;5010319;28;1337;-46
2022/11/23 07:37:23;;;;;;;;;;;;;;;;;;5026812;28;1453;-46
2022/11/23 07:39:51;;;;;;;;;;;;;;;;;;5026908;28;1244;-46
2022/11/23 07:42:27;;;;;;;;;;;;;;;;;;5026852;28;1519;-46
2022/11/23 07:45:08;;;;;;;;;;;;;;;;;;5011745;28;1289;-47
2022/11/23 07:47:37;;;;;;;;;;;;;;;;;;5026520;28;1377;-46
2022/11/23 07:50:05;;;;;;;;;;;;;;;;;;5026675;28;1214;-47
2022/11/23 07:52:35;;;;;;;;;;;;;;;;;;5011443;28;1409;-46
2022/11/23 07:55:02;;;;;;;;;;;;;;;;;;5011588;28;1037;-46
2022/11/23 07:57:29;;;;;;;;;;;;;;;;;;5011334;28;1038;-47
2022/11/23 07:59:57;;;;;;;;;;;;;;;;;;5011468;28;1158;-46
2022/11/23 08:02:23;;;;;;;;;;;;;;;;;;5011182;28;1086;-48
2022/11/23 08:04:51;;;;;;;;;;;;;;;;;;5011421;28;1412;-46
2022/11/23 08:07:18;;;;;;;;;;;;;;;;;;5011400;28;1574;-45
2022/11/23 08:09:45;;;;;;;;;;;;;;;;;;5011292;28;1100;-46
2022/11/23 08:12:12;;;;;;;;;;;;;;;;;;5011655;28;1029;-48
2022/11/23 08:14:40;;;;;;;;;;;;;;;;;;5011192;28;1210;-46
2022/11/23 08:17:07;;;;;;;;;;;;;;;;;;5011313;28;1288;-46
2022/11/23 08:19:34;;;;;;;;;;;;;;;;;;4993180;28;1984;-46
2022/11/23 08:22:01;;;;;;;;;;;;;;;;;;4991759;28;932;-46
2022/11/23 08:24:28;;;;;;;;;;;;;;;;;;4991501;28;1324;-47
2022/11/23 08:26:56;;;;;;;;;;;;;;;;;;4991818;28;1017;-48
2022/11/23 08:29:23;;;;;;;;;;;;;;;;;;4991604;28;1066;-45
2022/11/23 08:31:50;;;;;;;;;;;;;;;;;;4991567;28;1220;-46
2022/11/23 08:34:18;;;;;;;;;;;;;;;;;;4991786;28;1714;-44
2022/11/23 08:36:45;;;;;;;;;;;;;;;;;;4991721;28;978;-49
2022/11/23 08:39:15;;;;;;;;;;;;;;;;;;4991634;28;1912;-46
2022/11/23 08:41:42;;;;;;;;;;;;;;;;;;4991388;28;905;-48
2022/11/23 08:44:10;;;;;;;;;;;;;;;;;;4991577;28;1098;-48
2022/11/23 08:46:37;;;;;;;;;;;;;;;;;;4991486;28;1152;-46
2022/11/23 08:49:05;;;;;;;;;;;;;;;;;;4991505;28;1354;-48
2022/11/23 08:51:32;;;;;;;;;;;;;;;;;;4991431;28;1034;-48
2022/11/23 08:53:59;;;;;;;;;;;;;;;;;;4994519;28;1098;-46
2022/11/23 08:56:26;;;;;;;;;;;;;;;;;;4994698;28;1189;-47
2022/11/23 08:58:54;;;;;;;;;;;;;;;;;;4994895;28;1910;-46
2022/11/23 09:01:21;;;;;;;;;;;;;;;;;;4994664;28;1167;-46
2022/11/23 09:03:48;;;;;;;;;;;;;;;;;;4994909;28;966;-46
2022/11/23 09:06:15;;;;;;;;;;;;;;;;;;4995062;28;1164;-47
2022/11/23 09:08:42;;;;;;;;;;;;;;;;;;4994774;28;926;-46
2022/11/23 09:11:11;;;;;;;;;;;;;;;;;;4994630;28;999;-46
2022/11/23 09:13:39;;;;;;;;;;;;;;;;;;4994647;28;1007;-45
2022/11/23 09:16:06;;;;;;;;;;;;;;;;;;4994764;28;960;-44
2022/11/23 09:18:34;;;;;;;;;;;;;;;;;;5003758;28;1912;-47
2022/11/23 09:21:04;;;;;;;;;;;;;;;;;;5014171;28;1167;-45
2022/11/23 09:23:32;;;;;;;;;;;;;;;;;;5013857;28;1180;-46
2022/11/23 09:25:59;;;;;;;;;;;;;;;;;;5014022;28;1031;-50
2022/11/23 09:28:27;;;;;;;;;;;;;;;;;;5013969;28;1323;-46
2022/11/23 09:30:55;;;;;;;;;;;;;;;;;;5013882;28;983;-47
2022/11/23 09:33:23;;;;;;;;;;;;;;;;;;5014062;28;1316;-48
2022/11/23 09:36:00;;;;;;;;;;;;;;;;;;5013543;28;1065;-48
2022/11/23 09:38:30;;;;;;;;;;;;;;;;;;5013796;28;1969;-44
2022/11/23 09:41:36;;;;;;;;;;;;;;;;;;5014128;28;1121;-44
2022/11/23 09:44:03;;;;;;;;;;;;;;;;;;5013483;28;1673;-47
2022/11/23 09:46:30;;;;;;;;;;;;;;;;;;5013887;28;1368;-46
2022/11/23 09:49:11;;;;;;;;;;;;;;;;;;5013600;28;1198;-45
2022/11/23 09:51:39;;;;;;;;;;;;;;;;;;5013513;28;981;-45
2022/11/23 09:54:09;;;;;;;;;;;;;;;;;;5013504;28;1112;-45
2022/11/23 09:56:40;;;;;;;;;;;;;;;;;;5013356;28;999;-47
2022/11/23 09:59:12;;;;;;;;;;;;;;;;;;5013261;28;1993;-46
2022/11/23 10:01:40;;;;;;;;;;;;;;;;;;5013380;28;1073;-45
2022/11/23 10:04:13;;;;;;;;;;;;;;;;;;5012374;28;978;-45
2022/11/23 10:06:42;;;;;;;;;;;;;;;;;;5013354;28;1032;-47
2022/11/23 10:09:11;;;;;;;;;;;;;;;;;;5013185;28;1036;-47
2022/11/23 10:11:58;;;;;;;;;;;;;;;;;;5013177;28;1193;-44
2022/11/23 10:14:34;;;;;;;;;;;;;;;;;;5013161;28;1067;-45
2022/11/23 10:17:13;;;;;;;;;;;;;;;;;;5013065;28;948;-47
2022/11/23 10:19:46;;;;;;;;;;;;;;;;;;4994060;28;1920;-46
2022/11/23 10:22:16;;;;;;;;;;;;;;;;;;4993434;28;977;-47
2022/11/23 10:24:48;;;;;;;;;;;;;;;;;;4993106;28;1263;-45
2022/11/23 10:27:22;;;;;;;;;;;;;;;;;;4993387;28;1084;-45
2022/11/23 10:29:55;;;;;;;;;;;;;;;;;;4993464;28;1245;-48
2022/11/23 10:32:29;;;;;;;;;;;;;;;;;;4993291;28;1045;-45
2022/11/23 10:34:59;;;;;;;;;;;;;;;;;;4993088;28;1090;-46
2022/11/23 10:37:26;;;;;;;;;;;;;;;;;;4993041;28;993;-47
2022/11/23 10:39:53;;;;;;;;;;;;;;;;;;4993239;28;1976;-50
2022/11/23 10:42:24;;;;;;;;;;;;;;;;;;4993066;28;927;-46
2022/11/23 10:44:54;;;;;;;;;;;;;;;;;;4993070;28;1050;-44
2022/11/23 10:47:33;;;;;;;;;;;;;;;;;;4992989;28;1012;-46
2022/11/23 10:50:00;;;;;;;;;;;;;;;;;;4992811;28;1390;-47
2022/11/23 10:52:29;;;;;;;;;;;;;;;;;;4992709;28;1019;-46
2022/11/23 10:54:57;;;;;;;;;;;;;;;;;;4992678;28;1088;-47
2022/11/23 10:57:41;;;;;;;;;;;;;;;;;;4993018;28;1403;-49
2022/11/23 11:00:11;;;;;;;;;;;;;;;;;;4992612;28;1910;-46
2022/11/23 11:02:44;;;;;;;;;;;;;;;;;;4992523;28;1656;-46
2022/11/23 11:05:13;;;;;;;;;;;;;;;;;;4992686;28;1284;-45
2022/11/23 11:07:40;;;;;;;;;;;;;;;;;;4992352;28;1050;-46
2022/11/23 11:10:27;;;;;;;;;;;;;;;;;;4992578;28;1075;-49
2022/11/23 11:12:55;;;;;;;;;;;;;;;;;;4992667;28;1436;-46
2022/11/23 11:15:22;;;;;;;;;;;;;;;;;;4992282;28;1043;-43
2022/11/23 11:17:56;;;;;;;;;;;;;;;;;;4995900;28;1160;-46
2022/11/23 11:20:28;;;;;;;;;;;;;;;;;;5012123;28;1946;-46
2022/11/23 11:22:56;;;;;;;;;;;;;;;;;;5012092;28;1336;-45
2022/11/23 11:25:26;;;;;;;;;;;;;;;;;;5012133;28;1345;-45
2022/11/23 11:27:55;;;;;;;;;;;;;;;;;;5012096;28;1271;-48
2022/11/23 11:30:23;;;;;;;;;;;;;;;;;;5011850;28;1020;-47
2022/11/23 11:33:02;;;;;;;;;;;;;;;;;;5026596;28;1208;-46
2022/11/23 11:35:30;;;;;;;;;;;;;;;;;;5011665;28;1002;-46
2022/11/23 11:38:19;;;;;;;;;;;;;;;;;;5011550;28;1194;-46
2022/11/23 11:40:46;;;;;;;;;;;;;;;;;;5011580;28;1978;-46
2022/11/23 11:43:19;;;;;;;;;;;;;;;;;;5011661;28;976;-49
2022/11/23 11:45:52;;;;;;;;;;;;;;;;;;5011610;28;1364;-45
2022/11/23 11:48:42;;;;;;;;;;;;;;;;;;5011538;28;1347;-48
2022/11/23 11:51:17;;;;;;;;;;;;;;;;;;5011382;28;1086;-47
2022/11/23 11:53:50;;;;;;;;;;;;;;;;;;5011601;28;1034;-47
2022/11/23 11:56:29;;;;;;;;;;;;;;;;;;5011624;28;1147;-45
2022/11/23 11:59:19;;;;;;;;;;;;;;;;;;5011485;28;1910;-49
2022/11/23 12:01:50;;;;;;;;;;;;;;;;;;5011238;28;1102;-45
2022/11/23 12:04:37;;;;;;;;;;;;;;;;;;5011404;28;958;-47
2022/11/23 12:07:05;;;;;;;;;;;;;;;;;;5011356;28;1123;-47
2022/11/23 12:09:36;;;;;;;;;;;;;;;;;;5011488;28;1081;-46
2022/11/23 12:12:04;;;;;;;;;;;;;;;;;;5011063;28;906;-45
2022/11/23 12:14:31;;;;;;;;;;;;;;;;;;5011394;28;1454;-46
2022/11/23 12:17:03;;;;;;;;;;;;;;;;;;5011510;28;988;-45
2022/11/23 12:19:58;;;;;;;;;;;;;;;;;;4972189;28;1926;-48
2022/11/23 12:22:34;;;;;;;;;;;;;;;;;;4972438;28;1052;-50
2022/11/23 12:25:14;;;;;;;;;;;;;;;;;;4972125;28;1395;-47
2022/11/23 12:27:53;;;;;;;;;;;;;;;;;;4973408;28;1276;-49
2022/11/23 12:30:24;;;;;;;;;;;;;;;;;;4976101;28;989;-47
2022/11/23 12:33:06;;;;;;;;;;;;;;;;;;4976076;28;1160;-46
2022/11/23 12:36:05;;;;;;;;;;;;;;;;;;4975837;28;1168;-46
2022/11/23 12:38:42;;;;;;;;;;;;;;;;;;4964208;28;1375;-47
2022/11/23 12:41:15;;;;;;;;;;;;;;;;;;4990897;28;2366;-44
2022/11/23 12:43:52;;;;;;;;;;;;;;;;;;4975837;28;1016;-47
2022/11/23 12:46:25;;;;;;;;;;;;;;;;;;4975800;28;1136;-43
2022/11/23 12:48:53;;;;;;;;;;;;;;;;;;4975355;28;1093;-45
2022/11/23 12:51:24;;;;;;;;;;;;;;;;;;4975745;28;1154;-47
2022/11/23 12:54:04;;;;;;;;;;;;;;;;;;4975484;28;998;-46
2022/11/23 12:56:47;;;;;;;;;;;;;;;;;;4975839;28;1044;-47
2022/11/23 12:59:15;;;;;;;;;;;;;;;;;;4975312;28;1974;-46
2022/11/23 13:01:46;;;;;;;;;;;;;;;;;;4975671;28;1062;-50
2022/11/23 13:04:26;;;;;;;;;;;;;;;;;;4975054;28;1098;-48
2022/11/23 13:07:02;;;;;;;;;;;;;;;;;;4975379;28;1396;-46
2022/11/23 13:09:56;;;;;;;;;;;;;;;;;;4975198;28;1730;-46
2022/11/23 13:12:42;;;;;;;;;;;;;;;;;;4975097;28;1218;-46
2022/11/23 13:15:09;;;;;;;;;;;;;;;;;;4974981;28;1108;-45
2022/11/23 13:17:44;;;;;;;;;;;;;;;;;;4978643;28;1114;-46
2022/11/23 13:20:14;;;;;;;;;;;;;;;;;;5014067;28;1930;-46
2022/11/23 13:22:45;;;;;;;;;;;;;;;;;;4995920;28;939;-48
2022/11/23 13:25:18;;;;;;;;;;;;;;;;;;4993956;28;1197;-46
2022/11/23 13:27:48;;;;;;;;;;;;;;;;;;4994423;28;1049;-47
2022/11/23 13:30:22;;;;;;;;;;;;;;;;;;4994277;28;1095;-47
2022/11/23 13:32:53;;;;;;;;;;;;;;;;;;4994377;28;1133;-47
2022/11/23 13:35:20;;;;;;;;;;;;;;;;;;4994214;28;949;-46
2022/11/23 13:38:10;;;;;;;;;;;;;;;;;;4994147;28;1300;-57
2022/11/23 13:40:37;;;;;;;;;;;;;;;;;;4994481;28;1914;-49
2022/11/23 13:43:24;;;;;;;;;;;;;;;;;;4994454;28;1117;-45
2022/11/23 13:46:10;;;;;;;;;;;;;;;;;;4990306;28;1530;-48
2022/11/23 13:48:44;;;;;;;;;;;;;;;;;;4993971;28;1177;-45
2022/11/23 13:51:33;;;;;;;;;;;;;;;;;;4993705;28;1034;-45
2022/11/23 13:54:04;;;;;;;;;;;;;;;;;;4994182;28;1578;-45
2022/11/23 13:56:35;;;;;;;;;;;;;;;;;;4993941;28;1026;-47
2022/11/23 13:59:24;;;;;;;;;;;;;;;;;;4993965;28;979;-47
2022/11/23 14:02:00;;;;;;;;;;;;;;;;;;4993777;28;1021;-45
2022/11/23 14:04:29;;;;;;;;;;;;;;;;;;4993718;28;1146;-47
2022/11/23 14:06:58;;;;;;;;;;;;;;;;;;4993656;28;981;-47
2022/11/23 14:09:31;;;;;;;;;;;;;;;;;;4993739;28;1094;-47
2022/11/23 14:12:10;;;;;;;;;;;;;;;;;;4993193;28;1097;-47
2022/11/23 14:14:40;;;;;;;;;;;;;;;;;;4993425;28;1006;-47
2022/11/23 14:17:23;;;;;;;;;;;;;;;;;;4993067;28;1059;-44
2022/11/23 14:19:50;;;;;;;;;;;;;;;;;;4973843;28;1935;-45
2022/11/23 14:22:20;;;;;;;;;;;;;;;;;;4973539;28;1080;-43
2022/11/23 14:25:19;;;;;;;;;;;;;;;;;;4972801;28;1051;-46
2022/11/23 14:28:12;;;;;;;;;;;;;;;;;;4972248;28;1233;-47
2022/11/23 14:30:42;;;;;;;;;;;;;;;;;;4972656;28;1089;-46
2022/11/23 14:33:20;;;;;;;;;;;;;;;;;;4973911;28;1210;-45
2022/11/23 14:36:06;;;;;;;;;;;;;;;;;;4973541;28;1080;-47
2022/11/23 14:38:40;;;;;;;;;;;;;;;;;;4973663;28;1189;-46
2022/11/23 14:41:19;;;;;;;;;;;;;;;;;;4973827;28;1910;-47
2022/11/23 14:43:46;;;;;;;;;;;;;;;;;;4973502;28;1271;-46
2022/11/23 14:46:20;;;;;;;;;;;;;;;;;;4972793;28;979;-46
2022/11/23 14:48:48;;;;;;;;;;;;;;;;;;4973510;28;1445;-46
2022/11/23 14:51:17;;;;;;;;;;;;;;;;;;4972853;28;1156;-46
2022/11/23 14:53:47;;;;;;;;;;;;;;;;;;4973352;28;918;-46
2022/11/23 14:56:27;;;;;;;;;;;;;;;;;;4973291;28;1417;-49
2022/11/23 14:58:57;;;;;;;;;;;;;;;;;;4973075;28;937;-46
2022/11/23 15:01:25;;;;;;;;;;;;;;;;;;4973036;28;1970;-46
2022/11/23 15:04:06;;;;;;;;;;;;;;;;;;4973224;28;943;-50
2022/11/23 15:06:35;;;;;;;;;;;;;;;;;;4984120;28;1180;-46
2022/11/23 15:09:21;;;;;;;;;;;;;;;;;;5027376;28;968;-46
2022/11/23 15:11:48;;;;;;;;;;;;;;;;;;5026909;28;1145;-47
2022/11/23 15:14:24;;;;;;;;;;;;;;;;;;5012053;28;1082;-46
2022/11/23 15:16:51;;;;;;;;;;;;;;;;;;5011897;28;1044;-47
2022/11/23 15:19:28;;;;;;;;;;;;;;;;;;4995732;28;1117;-47
2022/11/23 15:21:55;;;;;;;;;;;;;;;;;;4992226;28;1041;-49
2022/11/23 15:24:24;;;;;;;;;;;;;;;;;;4992163;28;1233;-46
2022/11/23 15:26:51;;;;;;;;;;;;;;;;;;4992231;28;1129;-47
2022/11/23 15:29:34;;;;;;;;;;;;;;;;;;5007151;28;954;-48
2022/11/23 15:32:03;;;;;;;;;;;;;;;;;;4991948;28;1053;-48
2022/11/23 15:34:52;;;;;;;;;;;;;;;;;;4991957;28;1701;-47
2022/11/23 15:37:20;;;;;;;;;;;;;;;;;;4992015;28;1268;-47
2022/11/23 15:39:47;;;;;;;;;;;;;;;;;;4992034;28;1899;-47
2022/11/23 15:42:16;;;;;;;;;;;;;;;;;;4991996;28;1296;-46
2022/11/23 15:44:43;;;;;;;;;;;;;;;;;;4991624;28;976;-48
2022/11/23 15:47:19;;;;;;;;;;;;;;;;;;4990150;28;1047;-48
2022/11/23 15:49:46;;;;;;;;;;;;;;;;;;4989697;28;1308;-48
2022/11/23 15:52:18;;;;;;;;;;;;;;;;;;5004991;28;1613;-48
2022/11/23 15:54:45;;;;;;;;;;;;;;;;;;5004716;28;915;-49
2022/11/23 15:57:18;;;;;;;;;;;;;;;;;;4989764;28;1430;-50
2022/11/23 15:59:48;;;;;;;;;;;;;;;;;;4990133;28;1946;-47
2022/11/23 16:02:25;;;;;;;;;;;;;;;;;;4991816;28;1072;-47
2022/11/23 16:05:04;;;;;;;;;;;;;;;;;;4995927;28;1338;-48
2022/11/23 16:07:31;;;;;;;;;;;;;;;;;;4995687;28;1272;-46
2022/11/23 16:10:04;;;;;;;;;;;;;;;;;;4995786;28;1095;-46
2022/11/23 16:12:33;;;;;;;;;;;;;;;;;;4995613;28;1311;-47
2022/11/23 16:15:21;;;;;;;;;;;;;;;;;;4995800;28;1129;-46
2022/11/23 16:17:48;;;;;;;;;;;;;;;;;;4999201;28;1207;-48
2022/11/23 16:20:15;;;;;;;;;;;;;;;;;;5015078;28;1910;-44
2022/11/23 16:22:47;;;;;;;;;;;;;;;;;;5015487;28;1048;-50
2022/11/23 16:25:26;;;;;;;;;;;;;;;;;;5015194;28;1205;-48
2022/11/23 16:27:57;;;;;;;;;;;;;;;;;;5014957;28;1142;-50
2022/11/23 16:30:26;;;;;;;;;;;;;;;;;;5015012;28;1009;-48
2022/11/23 16:32:53;;;;;;;;;;;;;;;;;;5015083;28;1061;-48
2022/11/23 16:35:20;;;;;;;;;;;;;;;;;;5015051;28;1385;-46
2022/11/23 16:37:47;;;;;;;;;;;;;;;;;;5014695;28;926;-47
2022/11/23 16:40:15;;;;;;;;;;;;;;;;;;5014967;28;1969;-52
2022/11/23 16:42:42;;;;;;;;;;;;;;;;;;5015123;28;1032;-46
2022/11/23 16:45:09;;;;;;;;;;;;;;;;;;5014751;28;987;-50
2022/11/23 16:47:49;;;;;;;;;;;;;;;;;;5014710;28;1127;-48
2022/11/23 16:50:16;;;;;;;;;;;;;;;;;;5014727;28;1039;-47
2022/11/23 16:52:43;;;;;;;;;;;;;;;;;;5014725;28;1076;-48
2022/11/23 16:55:11;;;;;;;;;;;;;;;;;;5014538;28;1199;-48
2022/11/23 16:57:38;;;;;;;;;;;;;;;;;;5014430;28;1027;-50
2022/11/23 17:00:10;;;;;;;;;;;;;;;;;;5014454;28;1904;-47
2022/11/23 17:02:37;;;;;;;;;;;;;;;;;;5014568;28;1147;-48
2022/11/23 17:05:23;;;;;;;;;;;;;;;;;;5014351;28;1086;-47
2022/11/23 17:07:50;;;;;;;;;;;;;;;;;;5014366;28;1046;-48
2022/11/23 17:10:19;;;;;;;;;;;;;;;;;;5014375;28;1098;-49
2022/11/23 17:12:49;;;;;;;;;;;;;;;;;;5014269;28;1183;-49
2022/11/23 17:15:18;;;;;;;;;;;;;;;;;;5014409;28;991;-48
2022/11/23 17:17:45;;;;;;;;;;;;;;;;;;5011061;28;1196;-47
2022/11/23 17:20:13;;;;;;;;;;;;;;;;;;5009458;28;1976;-46
2022/11/23 17:22:40;;;;;;;;;;;;;;;;;;4994257;28;1175;-49
2022/11/23 17:25:08;;;;;;;;;;;;;;;;;;4994375;28;1619;-47
2022/11/23 17:27:40;;;;;;;;;;;;;;;;;;4994016;28;995;-47
2022/11/23 17:30:15;;;;;;;;;;;;;;;;;;4994407;28;973;-48
2022/11/23 17:32:42;;;;;;;;;;;;;;;;;;5009215;28;1622;-47
2022/11/23 17:35:09;;;;;;;;;;;;;;;;;;4994059;28;1692;-49